createdAt,value
2023-06-07T00:01:34.807Z,18.20
2023-06-07T00:04:04.135Z,18.10
2023-06-07T00:06:33.768Z,18.10
2023-06-07T00:09:00.917Z,18.10
2023-06-07T00:11:28.046Z,18.10
2023-06-07T00:13:55.045Z,18.10
2023-06-07T00:16:22.135Z,18.10
2023-06-07T00:18:49.416Z,18.10
2023-06-07T00:21:16.422Z,18.20
2023-06-07T00:23:43.402Z,18.20
2023-06-07T00:26:10.431Z,18.20
2023-06-07T00:28:37.439Z,18.20
2023-06-07T00:31:05.429Z,18.20
2023-06-07T00:33:32.456Z,18.10
2023-06-07T00:35:59.488Z,18.10
2023-06-07T00:38:26.608Z,18.10
2023-06-07T00:40:53.625Z,18.10
2023-06-07T00:43:20.861Z,18.10
2023-06-07T00:45:47.979Z,18.10
2023-06-07T00:48:15.583Z,18.10
2023-06-07T00:50:42.783Z,18.10
2023-06-07T00:53:10.041Z,18.10
2023-06-07T00:55:37.422Z,18.10
2023-06-07T00:58:04.544Z,18.10
2023-06-07T01:00:31.690Z,18.10
2023-06-07T01:02:58.833Z,18.00
2023-06-07T01:05:25.970Z,18.10
2023-06-07T01:07:56.005Z,18.10
2023-06-07T01:10:23.365Z,18.00
2023-06-07T01:12:55.465Z,18.00
2023-06-07T01:15:23.273Z,18.00
2023-06-07T01:17:52.941Z,18.00
2023-06-07T01:20:24.847Z,18.00
2023-06-07T01:22:58.218Z,18.00
2023-06-07T01:25:26.741Z,18.00
2023-06-07T01:27:56.609Z,18.00
2023-06-07T01:30:24.779Z,18.00
2023-06-07T01:32:53.480Z,18.00
2023-06-07T01:35:22.043Z,18.00
2023-06-07T01:37:49.591Z,18.00
2023-06-07T01:40:17.357Z,18.00
2023-06-07T01:42:46.084Z,18.00
2023-06-07T01:45:13.621Z,18.00
2023-06-07T01:47:41.105Z,18.00
2023-06-07T01:50:10.250Z,18.00
2023-06-07T01:52:37.252Z,18.00
2023-06-07T01:55:07.081Z,18.00
2023-06-07T01:57:58.398Z,18.00
2023-06-07T02:00:32.658Z,18.00
2023-06-07T02:03:17.989Z,18.00
2023-06-07T02:05:59.040Z,18.00
2023-06-07T02:08:35.523Z,18.00
2023-06-07T02:11:03.521Z,18.00
2023-06-07T02:13:38.020Z,18.00
2023-06-07T02:16:06.193Z,17.90
2023-06-07T02:18:38.549Z,17.90
2023-06-07T02:21:05.719Z,17.90
2023-06-07T02:23:34.010Z,18.00
2023-06-07T02:26:01.118Z,18.00
2023-06-07T02:28:28.202Z,18.00
2023-06-07T02:30:56.935Z,17.90
2023-06-07T02:33:27.425Z,17.90
2023-06-07T02:35:54.513Z,17.90
2023-06-07T02:38:21.574Z,17.90
2023-06-07T02:40:48.679Z,17.90
2023-06-07T02:43:15.850Z,17.90
2023-06-07T02:45:42.921Z,17.90
2023-06-07T02:48:09.903Z,17.90
2023-06-07T02:50:37.001Z,17.90
2023-06-07T02:53:07.370Z,17.90
2023-06-07T02:55:35.345Z,17.90
2023-06-07T02:58:02.363Z,17.90
2023-06-07T03:00:29.307Z,17.80
2023-06-07T03:02:56.388Z,17.80
2023-06-07T03:05:23.965Z,17.80
2023-06-07T03:07:51.809Z,17.90
2023-06-07T03:10:19.009Z,17.80
2023-06-07T03:12:46.045Z,17.80
2023-06-07T03:15:13.089Z,17.80
2023-06-07T03:17:44.321Z,17.90
2023-06-07T03:20:11.789Z,17.90
2023-06-07T03:22:38.991Z,17.90
2023-06-07T03:25:06.915Z,17.90
2023-06-07T03:27:36.024Z,17.90
2023-06-07T03:30:03.347Z,17.90
2023-06-07T03:32:30.730Z,17.80
2023-06-07T03:34:57.692Z,17.80
2023-06-07T03:37:24.796Z,17.80
2023-06-07T03:39:51.853Z,17.80
2023-06-07T03:42:18.836Z,17.80
2023-06-07T03:44:46.257Z,17.80
2023-06-07T03:47:13.276Z,17.80
2023-06-07T03:49:40.278Z,17.80
2023-06-07T03:52:07.871Z,17.80
2023-06-07T03:54:35.063Z,17.80
2023-06-07T03:57:02.131Z,17.80
2023-06-07T03:59:29.290Z,17.80
2023-06-07T04:01:58.375Z,17.80
2023-06-07T04:04:29.057Z,17.80
2023-06-07T04:06:56.481Z,17.80
2023-06-07T04:09:23.509Z,17.80
2023-06-07T04:11:50.950Z,17.80
2023-06-07T04:14:18.121Z,17.80
2023-06-07T04:16:45.137Z,17.80
2023-06-07T04:19:12.324Z,17.80
2023-06-07T04:21:40.589Z,17.80
2023-06-07T04:24:07.927Z,17.80
2023-06-07T04:26:35.537Z,17.80
2023-06-07T04:29:02.722Z,17.90
2023-06-07T04:31:34.815Z,17.90
2023-06-07T04:34:06.173Z,17.90
2023-06-07T04:36:38.683Z,17.90
2023-06-07T04:39:07.350Z,17.90
2023-06-07T04:41:37.494Z,17.90
2023-06-07T04:44:04.787Z,17.90
2023-06-07T04:46:32.853Z,17.90
2023-06-07T04:49:00.379Z,17.90
2023-06-07T04:51:30.750Z,17.90
2023-06-07T04:53:59.762Z,17.90
2023-06-07T04:56:27.973Z,17.90
2023-06-07T04:58:56.705Z,18.00
2023-06-07T05:01:24.315Z,17.90
2023-06-07T05:03:58.573Z,17.90
2023-06-07T05:06:25.596Z,17.90
2023-06-07T05:08:52.609Z,18.00
2023-06-07T05:11:19.621Z,18.00
2023-06-07T05:13:48.074Z,18.00
2023-06-07T05:16:18.856Z,18.00
2023-06-07T05:18:52.204Z,18.00
2023-06-07T05:21:19.411Z,18.00
2023-06-07T05:23:47.081Z,18.00
2023-06-07T05:26:14.209Z,18.00
2023-06-07T05:28:41.315Z,18.00
2023-06-07T05:31:11.921Z,18.00
2023-06-07T05:33:39.659Z,18.00
2023-06-07T05:36:06.719Z,18.10
2023-06-07T05:38:33.679Z,18.10
2023-06-07T05:41:00.775Z,18.10
2023-06-07T05:43:27.799Z,18.20
2023-06-07T05:45:55.164Z,18.20
2023-06-07T05:48:22.210Z,18.20
2023-06-07T05:50:50.195Z,18.20
2023-06-07T05:53:17.542Z,18.30
2023-06-07T05:55:46.818Z,18.30
2023-06-07T05:58:13.891Z,18.30
2023-06-07T06:00:42.221Z,18.40
2023-06-07T06:03:10.090Z,18.40
2023-06-07T06:05:37.259Z,18.50
2023-06-07T06:08:04.859Z,18.50
2023-06-07T06:10:34.754Z,18.60
2023-06-07T06:13:02.906Z,18.60
2023-06-07T06:15:30.198Z,18.60
2023-06-07T06:17:57.347Z,18.70
2023-06-07T06:20:24.459Z,18.70
2023-06-07T06:22:51.684Z,18.70
2023-06-07T06:25:18.868Z,18.70
2023-06-07T06:27:46.191Z,18.80
2023-06-07T06:30:13.592Z,18.80
2023-06-07T06:32:41.603Z,18.80
2023-06-07T06:35:11.758Z,18.80
2023-06-07T06:37:38.858Z,18.80
2023-06-07T06:40:07.173Z,18.80
2023-06-07T06:42:34.785Z,18.80
2023-06-07T06:45:01.823Z,18.80
2023-06-07T06:47:28.910Z,18.80
2023-06-07T06:49:56.058Z,18.90
2023-06-07T06:52:26.503Z,18.90
2023-06-07T06:54:53.579Z,18.90
2023-06-07T06:57:21.222Z,19.00
2023-06-07T06:59:50.335Z,19.00
2023-06-07T07:02:17.809Z,19.00
2023-06-07T07:04:45.144Z,19.10
2023-06-07T07:07:12.439Z,19.10
2023-06-07T07:09:40.014Z,19.20
2023-06-07T07:12:08.103Z,19.20
2023-06-07T07:14:35.263Z,19.30
2023-06-07T07:17:02.387Z,19.30
2023-06-07T07:19:29.588Z,19.40
2023-06-07T07:21:56.676Z,19.40
2023-06-07T07:24:23.742Z,19.50
2023-06-07T07:26:51.420Z,19.60
2023-06-07T07:29:18.561Z,19.70
2023-06-07T07:31:45.841Z,19.70
2023-06-07T07:34:13.748Z,19.80
2023-06-07T07:36:40.836Z,19.70
2023-06-07T07:39:07.912Z,19.80
2023-06-07T07:41:35.582Z,19.80
2023-06-07T07:44:03.106Z,19.80
2023-06-07T07:46:30.272Z,19.80
2023-06-07T07:48:57.527Z,19.80
2023-06-07T07:51:25.525Z,19.80
2023-06-07T07:53:53.710Z,19.80
2023-06-07T07:56:24.153Z,19.90
2023-06-07T07:58:51.850Z,20.00
2023-06-07T08:01:20.304Z,20.10
2023-06-07T08:03:48.960Z,20.10
2023-06-07T08:06:18.048Z,20.30
2023-06-07T08:08:49.108Z,20.40
2023-06-07T08:11:16.082Z,20.40
2023-06-07T08:13:43.250Z,20.40
2023-06-07T08:16:10.418Z,20.40
2023-06-07T08:18:37.768Z,20.30
2023-06-07T08:21:05.328Z,20.40
2023-06-07T08:23:32.513Z,20.40
2023-06-07T08:26:00.243Z,20.40
2023-06-07T08:28:27.328Z,20.40
2023-06-07T08:30:55.039Z,20.40
2023-06-07T08:33:22.033Z,20.40
2023-06-07T08:35:49.170Z,20.50
2023-06-07T08:38:16.198Z,20.50
2023-06-07T08:40:43.381Z,20.60
2023-06-07T08:43:10.694Z,20.70
2023-06-07T08:45:39.764Z,20.70
2023-06-07T08:48:13.329Z,20.80
2023-06-07T08:50:43.401Z,21.00
2023-06-07T08:53:15.860Z,21.10
2023-06-07T08:55:45.128Z,21.10
2023-06-07T08:58:13.162Z,21.10
2023-06-07T09:00:40.763Z,21.10
2023-06-07T09:03:08.013Z,21.00
2023-06-07T09:05:35.168Z,20.90
2023-06-07T09:08:04.212Z,20.90
2023-06-07T09:10:31.992Z,20.90
2023-06-07T09:12:59.012Z,20.90
2023-06-07T09:15:26.100Z,21.00
2023-06-07T09:18:00.721Z,21.00
2023-06-07T09:20:30.337Z,21.00
2023-06-07T09:23:16.311Z,21.20
2023-06-07T09:25:47.215Z,21.40
2023-06-07T09:28:15.486Z,21.70
2023-06-07T09:31:01.522Z,21.90
2023-06-07T09:33:30.381Z,22.20
2023-06-07T09:36:09.353Z,22.30
2023-06-07T09:38:37.364Z,22.30
2023-06-07T09:41:06.652Z,22.40
2023-06-07T09:43:55.858Z,22.40
2023-06-07T09:46:23.357Z,22.50
2023-06-07T09:48:52.575Z,22.50
2023-06-07T09:51:21.381Z,22.50
2023-06-07T09:54:02.844Z,22.60
2023-06-07T09:56:30.022Z,22.70
2023-06-07T09:59:18.390Z,22.80
2023-06-07T10:01:48.898Z,22.90
2023-06-07T10:04:16.217Z,22.90
2023-06-07T10:06:46.131Z,23.00
2023-06-07T10:09:16.558Z,23.10
2023-06-07T10:11:47.686Z,23.20
2023-06-07T10:14:15.953Z,23.30
2023-06-07T10:16:48.100Z,23.50
2023-06-07T10:19:22.187Z,23.60
2023-06-07T10:21:52.175Z,23.80
2023-06-07T10:24:25.716Z,23.90
2023-06-07T10:27:01.181Z,24.00
2023-06-07T10:29:41.187Z,24.10
2023-06-07T10:32:13.613Z,24.20
2023-06-07T10:34:41.807Z,24.30
2023-06-07T10:37:09.112Z,24.20
2023-06-07T10:39:40.083Z,24.20
2023-06-07T10:42:08.426Z,24.20
2023-06-07T10:44:38.692Z,24.40
2023-06-07T10:47:24.102Z,24.30
2023-06-07T10:49:52.378Z,24.40
2023-06-07T10:52:20.084Z,24.40
2023-06-07T10:54:48.611Z,24.70
2023-06-07T10:57:31.749Z,24.80
2023-06-07T11:00:33.273Z,24.70
2023-06-07T11:03:06.276Z,24.70
2023-06-07T11:05:55.559Z,24.70
2023-06-07T11:08:30.485Z,24.70
2023-06-07T11:11:02.541Z,24.90
2023-06-07T11:13:45.212Z,24.70
2023-06-07T11:16:25.174Z,24.90
2023-06-07T11:19:06.354Z,25.20
2023-06-07T11:21:55.400Z,25.20
2023-06-07T11:24:23.234Z,25.20
2023-06-07T11:26:51.887Z,25.00
2023-06-07T11:29:20.691Z,25.10
2023-06-07T11:31:58.115Z,25.20
2023-06-07T11:34:28.112Z,25.30
2023-06-07T11:37:15.620Z,25.10
2023-06-07T11:39:42.679Z,25.20
2023-06-07T11:42:09.813Z,25.20
2023-06-07T11:44:36.933Z,25.50
2023-06-07T11:47:07.467Z,25.60
2023-06-07T11:49:36.583Z,25.70
2023-06-07T11:52:03.884Z,25.60
2023-06-07T11:54:31.018Z,25.60
2023-06-07T11:57:00.144Z,25.70
2023-06-07T11:59:28.268Z,25.90
2023-06-07T12:01:55.597Z,25.80
2023-06-07T12:04:25.946Z,25.70
2023-06-07T12:06:53.167Z,25.70
2023-06-07T12:09:20.754Z,25.90
2023-06-07T12:11:49.705Z,25.90
2023-06-07T12:14:33.014Z,26.00
2023-06-07T12:17:01.809Z,26.00
2023-06-07T12:19:28.977Z,26.00
2023-06-07T12:22:05.317Z,26.20
2023-06-07T12:24:32.716Z,26.00
2023-06-07T12:27:05.101Z,26.00
2023-06-07T12:29:32.383Z,25.90
2023-06-07T12:32:02.450Z,25.90
2023-06-07T12:34:33.836Z,25.90
2023-06-07T12:37:01.395Z,26.10
2023-06-07T12:39:30.916Z,25.80
2023-06-07T12:41:58.609Z,25.60
2023-06-07T12:44:35.155Z,25.60
2023-06-07T12:47:03.507Z,25.60
2023-06-07T12:49:35.325Z,25.60
2023-06-07T12:52:07.580Z,25.50
2023-06-07T12:54:41.719Z,25.60
2023-06-07T12:57:19.030Z,25.80
2023-06-07T12:59:55.610Z,26.00
2023-06-07T13:02:23.151Z,26.20
2023-06-07T13:04:50.332Z,26.40
2023-06-07T13:07:17.482Z,26.50
2023-06-07T13:09:44.617Z,26.50
2023-06-07T13:12:12.093Z,26.80
2023-06-07T13:14:39.506Z,27.10
2023-06-07T13:17:06.943Z,27.40
2023-06-07T13:19:34.083Z,27.70
2023-06-07T13:22:01.622Z,27.90
2023-06-07T13:24:28.795Z,27.80
2023-06-07T13:26:55.831Z,27.60
2023-06-07T13:29:22.876Z,27.70
2023-06-07T13:31:50.237Z,27.50
2023-06-07T13:34:17.456Z,27.40
2023-06-07T13:36:44.730Z,27.20
2023-06-07T13:39:11.795Z,26.70
2023-06-07T13:41:41.582Z,26.50
2023-06-07T13:46:44.309Z,26.20
2023-06-07T13:49:11.579Z,25.90
2023-06-07T13:51:38.908Z,25.70
2023-06-07T13:54:06.776Z,25.70
2023-06-07T13:56:33.922Z,25.60
2023-06-07T13:59:01.434Z,25.40
2023-06-07T14:01:28.660Z,25.10
2023-06-07T14:03:57.582Z,24.70
2023-06-07T14:06:24.919Z,24.60
2023-06-07T14:08:52.134Z,24.40
2023-06-07T14:11:19.978Z,24.10
2023-06-07T14:13:47.127Z,24.00
2023-06-07T14:16:14.195Z,23.90
2023-06-07T14:18:41.481Z,23.80
2023-06-07T14:21:08.611Z,23.70
2023-06-07T14:23:35.684Z,23.70
2023-06-07T14:26:02.757Z,23.70
2023-06-07T14:28:29.838Z,23.60
2023-06-07T14:30:56.988Z,23.50
2023-06-07T14:33:24.248Z,23.40
2023-06-07T14:35:51.696Z,23.20
2023-06-07T14:38:18.960Z,23.20
2023-06-07T14:40:46.041Z,23.40
2023-06-07T14:43:13.085Z,23.40
2023-06-07T14:45:40.198Z,23.40
2023-06-07T14:48:07.462Z,23.40
2023-06-07T14:50:34.538Z,23.50
2023-06-07T14:53:01.905Z,23.60
2023-06-07T14:55:28.982Z,23.60
2023-06-07T14:57:56.027Z,23.70
2023-06-07T15:00:23.709Z,23.70
2023-06-07T15:02:51.178Z,23.90
2023-06-07T15:05:18.763Z,24.10
2023-06-07T15:07:45.843Z,24.20
2023-06-07T15:10:14.915Z,24.40
2023-06-07T15:12:42.557Z,24.20
2023-06-07T15:15:09.943Z,24.20
2023-06-07T15:17:37.037Z,24.40
2023-06-07T15:20:04.770Z,24.60
2023-06-07T15:22:32.941Z,24.80
2023-06-07T15:24:59.991Z,25.00
2023-06-07T15:27:27.001Z,25.00
2023-06-07T15:29:54.000Z,25.20
2023-06-07T15:32:21.218Z,25.20
2023-06-07T15:34:48.251Z,25.40
2023-06-07T15:37:15.400Z,25.60
2023-06-07T15:39:46.675Z,25.80
2023-06-07T15:42:15.042Z,26.00
2023-06-07T15:44:45.721Z,26.20
2023-06-07T15:47:12.837Z,26.40
2023-06-07T15:49:39.914Z,26.50
2023-06-07T15:52:07.313Z,26.50
2023-06-07T15:54:34.409Z,26.50
2023-06-07T15:57:01.466Z,26.60
2023-06-07T15:59:28.579Z,26.80
2023-06-07T16:01:55.680Z,26.80
2023-06-07T16:04:22.731Z,26.80
2023-06-07T16:06:49.776Z,26.70
2023-06-07T16:09:16.769Z,26.60
2023-06-07T16:11:43.913Z,26.40
2023-06-07T16:14:12.436Z,26.40
2023-06-07T16:16:40.368Z,26.20
2023-06-07T16:19:10.454Z,26.10
2023-06-07T16:21:41.122Z,25.70
2023-06-07T16:24:08.951Z,25.80
2023-06-07T16:26:36.141Z,25.90
2023-06-07T16:29:05.368Z,25.80
2023-06-07T16:31:32.816Z,25.60
2023-06-07T16:34:00.309Z,25.50
2023-06-07T16:36:27.451Z,25.60
2023-06-07T16:38:54.895Z,25.60
2023-06-07T16:41:26.703Z,25.70
2023-06-07T16:43:54.093Z,25.80
2023-06-07T16:46:21.413Z,25.80
2023-06-07T16:48:48.475Z,25.70
2023-06-07T16:51:15.597Z,25.70
2023-06-07T16:53:42.614Z,25.70
2023-06-07T16:56:09.704Z,25.80
2023-06-07T16:58:37.004Z,25.60
2023-06-07T17:01:04.889Z,25.50
2023-06-07T17:03:32.120Z,25.30
2023-06-07T17:05:59.321Z,25.40
2023-06-07T17:08:26.394Z,25.30
2023-06-07T17:10:53.603Z,25.40
2023-06-07T17:13:20.736Z,25.60
2023-06-07T17:15:49.636Z,25.50
2023-06-07T17:18:17.130Z,25.30
2023-06-07T17:20:46.246Z,25.30
2023-06-07T17:23:16.467Z,25.30
2023-06-07T17:25:43.538Z,25.30
2023-06-07T17:28:10.908Z,25.50
2023-06-07T17:30:41.619Z,25.80
2023-06-07T17:33:08.824Z,26.30
2023-06-07T17:35:35.956Z,26.70
2023-06-07T17:38:03.025Z,26.60
2023-06-07T17:40:30.224Z,26.20
2023-06-07T17:42:58.853Z,25.70
2023-06-07T17:45:27.312Z,25.30
2023-06-07T17:47:55.426Z,24.80
2023-06-07T17:50:41.114Z,24.50
2023-06-07T17:53:15.465Z,24.00
2023-06-07T17:55:45.578Z,23.20
2023-06-07T17:58:12.753Z,23.00
2023-06-07T18:00:39.911Z,22.50
2023-06-07T18:03:12.500Z,22.30
2023-06-07T18:05:39.922Z,22.20
2023-06-07T18:08:07.180Z,21.90
2023-06-07T18:10:34.229Z,21.60
2023-06-07T18:13:04.550Z,21.50
2023-06-07T18:15:32.498Z,21.50
2023-06-07T18:17:59.730Z,21.50
2023-06-07T18:20:26.891Z,21.40
2023-06-07T18:22:53.964Z,21.40
2023-06-07T18:25:22.324Z,21.40
2023-06-07T18:27:49.676Z,21.50
2023-06-07T18:30:17.097Z,21.40
2023-06-07T18:32:45.677Z,21.40
2023-06-07T18:35:13.736Z,21.40
2023-06-07T18:37:40.855Z,21.40
2023-06-07T18:40:09.016Z,21.30
2023-06-07T18:42:36.426Z,21.20
2023-06-07T18:45:04.004Z,21.20
2023-06-07T18:47:31.666Z,21.10
2023-06-07T18:49:58.695Z,21.10
2023-06-07T18:52:25.827Z,20.90
2023-06-07T18:54:53.021Z,20.70
2023-06-07T18:57:20.189Z,20.60
2023-06-07T18:59:47.314Z,20.60
2023-06-07T19:02:14.737Z,20.50
2023-06-07T19:04:41.910Z,20.50
2023-06-07T19:07:09.064Z,20.40
2023-06-07T19:09:37.771Z,20.30
2023-06-07T19:12:05.239Z,20.20
2023-06-07T19:14:35.705Z,20.10
2023-06-07T19:17:03.983Z,20.10
2023-06-07T19:19:32.096Z,20.10
2023-06-07T19:22:02.870Z,20.10
2023-06-07T19:24:29.957Z,20.10
2023-06-07T19:26:57.026Z,20.10
2023-06-07T19:29:24.166Z,20.10
2023-06-07T19:31:51.186Z,20.10
2023-06-07T19:34:18.383Z,20.00
2023-06-07T19:36:45.536Z,19.90
2023-06-07T19:39:12.585Z,19.80
2023-06-07T19:41:42.974Z,19.80
2023-06-07T19:44:10.086Z,19.70
2023-06-07T19:46:37.181Z,19.50
2023-06-07T19:49:04.286Z,19.40
2023-06-07T19:51:32.729Z,19.40
2023-06-07T19:53:59.767Z,19.40
2023-06-07T19:56:27.339Z,19.40
2023-06-07T19:58:54.559Z,19.40
2023-06-07T20:01:21.841Z,19.40
2023-06-07T20:03:48.984Z,19.40
2023-06-07T20:06:16.031Z,19.30
2023-06-07T20:08:43.618Z,19.20
2023-06-07T20:11:10.737Z,19.20
2023-06-07T20:13:37.771Z,19.20
2023-06-07T20:16:05.519Z,19.20
2023-06-07T20:18:32.742Z,19.10
2023-06-07T20:20:59.923Z,19.10
2023-06-07T20:23:27.110Z,19.00
2023-06-07T20:25:56.885Z,19.00
2023-06-07T20:28:24.170Z,19.00
2023-06-07T20:30:51.292Z,19.00
2023-06-07T20:33:18.291Z,18.90
2023-06-07T20:35:45.561Z,18.90
2023-06-07T20:38:12.713Z,18.90
2023-06-07T20:40:39.772Z,19.00
2023-06-07T20:43:06.909Z,19.00
2023-06-07T20:45:34.052Z,19.00
2023-06-07T20:48:01.206Z,19.00
2023-06-07T20:50:28.259Z,18.90
2023-06-07T20:52:55.474Z,18.90
2023-06-07T20:55:22.676Z,19.00
2023-06-07T20:57:49.752Z,19.00
2023-06-07T21:00:17.365Z,19.10
2023-06-07T21:02:44.442Z,19.20
2023-06-07T21:05:11.525Z,19.10
2023-06-07T21:07:38.519Z,19.00
2023-06-07T21:10:06.384Z,19.00
2023-06-07T21:12:33.770Z,18.90
2023-06-07T21:15:00.825Z,18.90
2023-06-07T21:17:29.127Z,18.90
2023-06-07T21:19:57.088Z,18.90
2023-06-07T21:22:24.192Z,19.00
2023-06-07T21:24:51.491Z,19.00
2023-06-07T21:27:18.550Z,18.90
2023-06-07T21:29:45.580Z,18.90
2023-06-07T21:32:12.685Z,18.80
2023-06-07T21:34:39.808Z,18.90
2023-06-07T21:37:07.093Z,18.90
2023-06-07T21:39:34.119Z,18.90
2023-06-07T21:42:03.121Z,18.90
2023-06-07T21:44:30.199Z,18.90
2023-06-07T21:46:57.427Z,18.90
2023-06-07T21:49:24.438Z,18.90
2023-06-07T21:51:51.588Z,18.90
2023-06-07T21:54:18.583Z,18.90
2023-06-07T21:56:45.853Z,18.90
2023-06-07T21:59:12.976Z,18.90
2023-06-07T22:01:40.189Z,18.90
2023-06-07T22:04:07.382Z,18.90
2023-06-07T22:06:34.448Z,18.80
2023-06-07T22:09:03.244Z,18.70
2023-06-07T22:11:32.474Z,18.70
2023-06-07T22:14:01.591Z,18.70
2023-06-07T22:16:35.276Z,18.70
2023-06-07T22:19:03.151Z,18.70
2023-06-07T22:21:31.808Z,18.70
2023-06-07T22:23:59.170Z,18.70
2023-06-07T22:26:30.269Z,18.70
2023-06-07T22:29:01.411Z,18.70
2023-06-07T22:31:30.693Z,18.70
2023-06-07T22:33:57.918Z,18.60
2023-06-07T22:36:32.661Z,18.50
2023-06-07T22:39:01.190Z,18.50
2023-06-07T22:41:29.128Z,18.40
2023-06-07T22:43:57.637Z,18.40
2023-06-07T22:46:25.877Z,18.40
2023-06-07T22:48:54.056Z,18.40
2023-06-07T22:51:21.260Z,18.40
2023-06-07T22:53:49.083Z,18.40
2023-06-07T22:56:18.210Z,18.40
2023-06-07T22:58:45.222Z,18.40
2023-06-07T23:01:14.302Z,18.40
2023-06-07T23:03:42.251Z,18.30
2023-06-07T23:06:09.387Z,18.40
2023-06-07T23:08:39.674Z,18.30
2023-06-07T23:11:07.424Z,18.30
2023-06-07T23:13:34.493Z,18.30
2023-06-07T23:16:01.674Z,18.20
2023-06-07T23:18:31.630Z,18.20
2023-06-07T23:21:02.154Z,18.20
2023-06-07T23:23:30.590Z,18.10
2023-06-07T23:25:57.674Z,18.10
2023-06-07T23:28:24.730Z,18.10
2023-06-07T23:30:51.842Z,18.00
2023-06-07T23:33:19.694Z,18.00
2023-06-07T23:35:46.865Z,17.90
2023-06-07T23:38:13.965Z,17.90
2023-06-07T23:40:41.046Z,17.90
2023-06-07T23:43:08.091Z,17.80
2023-06-07T23:45:35.173Z,17.70
2023-06-07T23:48:04.632Z,17.70
2023-06-07T23:50:33.991Z,17.70
2023-06-07T23:53:02.389Z,17.60
2023-06-07T23:55:29.499Z,17.60
2023-06-07T23:57:56.548Z,17.60
